sensor_id;sensor_type;location;lat;lon;timestamp;P1;durP1;ratioP1;P2;durP2;ratioP2
10904;SDS011;5505;51.450;9.254;2023-02-16T00:02:32;29.70;;;18.50;;
10904;SDS011;5505;51.450;9.254;2023-02-16T00:05:21;27.47;;;19.17;;
10904;SDS011;5505;51.450;9.254;2023-02-16T00:08:11;32.33;;;20.20;;
10904;SDS011;5505;51.450;9.254;2023-02-16T00:10:58;30.57;;;20.70;;
10904;SDS011;5505;51.450;9.254;2023-02-16T00:14:02;28.97;;;20.00;;
10904;SDS011;5505;51.450;9.254;2023-02-16T00:16:52;29.70;;;20.77;;
10904;SDS011;5505;51.450;9.254;2023-02-16T00:19:40;30.70;;;20.57;;
10904;SDS011;5505;51.450;9.254;2023-02-16T00:22:27;29.53;;;20.57;;
10904;SDS011;5505;51.450;9.254;2023-02-16T00:25:15;32.27;;;21.47;;
10904;SDS011;5505;51.450;9.254;2023-02-16T00:28:02;27.43;;;18.93;;
10904;SDS011;5505;51.450;9.254;2023-02-16T00:30:53;27.67;;;19.37;;
10904;SDS011;5505;51.450;9.254;2023-02-16T00:33:39;28.77;;;19.83;;
10904;SDS011;5505;51.450;9.254;2023-02-16T00:36:26;26.57;;;18.23;;
10904;SDS011;5505;51.450;9.254;2023-02-16T00:39:13;30.67;;;19.83;;
10904;SDS011;5505;51.450;9.254;2023-02-16T00:42:02;28.20;;;18.93;;
10904;SDS011;5505;51.450;9.254;2023-02-16T00:44:51;28.83;;;19.43;;
10904;SDS011;5505;51.450;9.254;2023-02-16T00:47:41;27.43;;;18.60;;
10904;SDS011;5505;51.450;9.254;2023-02-16T00:50:31;34.70;;;21.33;;
10904;SDS011;5505;51.450;9.254;2023-02-16T00:53:19;28.90;;;19.70;;
10904;SDS011;5505;51.450;9.254;2023-02-16T00:56:07;31.17;;;21.87;;
10904;SDS011;5505;51.450;9.254;2023-02-16T00:58:58;34.60;;;20.27;;
10904;SDS011;5505;51.450;9.254;2023-02-16T01:01:47;34.77;;;21.50;;
10904;SDS011;5505;51.450;9.254;2023-02-16T01:04:34;34.80;;;22.30;;
10904;SDS011;5505;51.450;9.254;2023-02-16T01:07:21;31.80;;;20.20;;
10904;SDS011;5505;51.450;9.254;2023-02-16T01:10:25;33.83;;;21.57;;
10904;SDS011;5505;51.450;9.254;2023-02-16T01:13:31;32.80;;;20.83;;
10904;SDS011;5505;51.450;9.254;2023-02-16T01:16:23;31.93;;;21.57;;
10904;SDS011;5505;51.450;9.254;2023-02-16T01:19:11;29.63;;;20.07;;
10904;SDS011;5505;51.450;9.254;2023-02-16T01:21:58;29.67;;;19.87;;
10904;SDS011;5505;51.450;9.254;2023-02-16T01:24:45;33.53;;;21.23;;
10904;SDS011;5505;51.450;9.254;2023-02-16T01:27:32;32.63;;;20.70;;
10904;SDS011;5505;51.450;9.254;2023-02-16T01:30:22;31.33;;;20.43;;
10904;SDS011;5505;51.450;9.254;2023-02-16T01:33:11;32.77;;;20.43;;
10904;SDS011;5505;51.450;9.254;2023-02-16T01:35:58;31.40;;;19.77;;
10904;SDS011;5505;51.450;9.254;2023-02-16T01:38:45;31.50;;;20.40;;
10904;SDS011;5505;51.450;9.254;2023-02-16T01:41:42;31.87;;;21.60;;
10904;SDS011;5505;51.450;9.254;2023-02-16T01:44:36;33.67;;;21.97;;
10904;SDS011;5505;51.450;9.254;2023-02-16T01:47:33;31.67;;;21.40;;
10904;SDS011;5505;51.450;9.254;2023-02-16T01:50:26;31.03;;;20.77;;
10904;SDS011;5505;51.450;9.254;2023-02-16T01:53:20;30.70;;;20.57;;
10904;SDS011;5505;51.450;9.254;2023-02-16T01:56:13;30.10;;;20.30;;
10904;SDS011;5505;51.450;9.254;2023-02-16T01:59:05;29.07;;;19.17;;
10904;SDS011;5505;51.450;9.254;2023-02-16T02:02:03;29.27;;;19.30;;
10904;SDS011;5505;51.450;9.254;2023-02-16T02:04:57;29.83;;;20.33;;
10904;SDS011;5505;51.450;9.254;2023-02-16T02:08:08;29.87;;;20.43;;
10904;SDS011;5505;51.450;9.254;2023-02-16T02:11:02;29.10;;;19.17;;
10904;SDS011;5505;51.450;9.254;2023-02-16T02:13:54;32.50;;;21.07;;
10904;SDS011;5505;51.450;9.254;2023-02-16T02:16:51;33.33;;;20.37;;
10904;SDS011;5505;51.450;9.254;2023-02-16T02:19:42;29.83;;;19.73;;
10904;SDS011;5505;51.450;9.254;2023-02-16T02:22:45;32.27;;;21.20;;
10904;SDS011;5505;51.450;9.254;2023-02-16T02:29:39;31.60;;;20.57;;
10904;SDS011;5505;51.450;9.254;2023-02-16T02:32:54;31.23;;;20.97;;
10904;SDS011;5505;51.450;9.254;2023-02-16T02:36:02;32.33;;;20.83;;
10904;SDS011;5505;51.450;9.254;2023-02-16T02:39:01;34.30;;;21.30;;
10904;SDS011;5505;51.450;9.254;2023-02-16T02:41:59;30.47;;;20.77;;
10904;SDS011;5505;51.450;9.254;2023-02-16T02:44:51;31.40;;;19.97;;
10904;SDS011;5505;51.450;9.254;2023-02-16T02:47:42;30.97;;;20.13;;
10904;SDS011;5505;51.450;9.254;2023-02-16T02:50:43;31.93;;;20.73;;
10904;SDS011;5505;51.450;9.254;2023-02-16T02:53:49;31.10;;;19.90;;
10904;SDS011;5505;51.450;9.254;2023-02-16T02:57:02;30.70;;;19.70;;
10904;SDS011;5505;51.450;9.254;2023-02-16T03:00:11;31.57;;;19.83;;
10904;SDS011;5505;51.450;9.254;2023-02-16T03:03:19;29.97;;;19.37;;
10904;SDS011;5505;51.450;9.254;2023-02-16T03:06:09;33.93;;;21.87;;
10904;SDS011;5505;51.450;9.254;2023-02-16T03:09:02;35.53;;;21.43;;
10904;SDS011;5505;51.450;9.254;2023-02-16T03:11:52;33.27;;;21.90;;
10904;SDS011;5505;51.450;9.254;2023-02-16T03:14:59;33.37;;;21.63;;
10904;SDS011;5505;51.450;9.254;2023-02-16T03:17:47;31.83;;;20.57;;
10904;SDS011;5505;51.450;9.254;2023-02-16T03:20:52;31.43;;;20.57;;
10904;SDS011;5505;51.450;9.254;2023-02-16T03:23:58;30.17;;;19.53;;
10904;SDS011;5505;51.450;9.254;2023-02-16T03:27:03;30.77;;;19.40;;
10904;SDS011;5505;51.450;9.254;2023-02-16T03:30:12;30.00;;;19.97;;
10904;SDS011;5505;51.450;9.254;2023-02-16T03:33:03;29.07;;;20.77;;
10904;SDS011;5505;51.450;9.254;2023-02-16T03:35:50;30.77;;;20.37;;
10904;SDS011;5505;51.450;9.254;2023-02-16T03:38:38;31.37;;;19.97;;
10904;SDS011;5505;51.450;9.254;2023-02-16T03:41:25;30.33;;;20.00;;
10904;SDS011;5505;51.450;9.254;2023-02-16T03:44:16;30.13;;;19.50;;
10904;SDS011;5505;51.450;9.254;2023-02-16T03:47:05;31.17;;;20.87;;
10904;SDS011;5505;51.450;9.254;2023-02-16T03:49:54;30.10;;;20.40;;
10904;SDS011;5505;51.450;9.254;2023-02-16T03:52:41;30.10;;;19.57;;
10904;SDS011;5505;51.450;9.254;2023-02-16T03:55:28;28.93;;;19.70;;
10904;SDS011;5505;51.450;9.254;2023-02-16T03:58:16;30.13;;;19.67;;
10904;SDS011;5505;51.450;9.254;2023-02-16T04:01:04;30.70;;;19.90;;
10904;SDS011;5505;51.450;9.254;2023-02-16T04:03:52;29.97;;;20.13;;
10904;SDS011;5505;51.450;9.254;2023-02-16T04:06:39;28.43;;;18.97;;
10904;SDS011;5505;51.450;9.254;2023-02-16T04:09:26;28.87;;;19.47;;
10904;SDS011;5505;51.450;9.254;2023-02-16T04:12:12;31.53;;;20.80;;
10904;SDS011;5505;51.450;9.254;2023-02-16T04:15:17;31.87;;;19.43;;
10904;SDS011;5505;51.450;9.254;2023-02-16T04:18:05;29.47;;;18.53;;
10904;SDS011;5505;51.450;9.254;2023-02-16T04:20:53;33.53;;;19.37;;
10904;SDS011;5505;51.450;9.254;2023-02-16T04:23:41;28.40;;;19.80;;
10904;SDS011;5505;51.450;9.254;2023-02-16T04:26:28;30.10;;;20.33;;
10904;SDS011;5505;51.450;9.254;2023-02-16T04:29:14;30.47;;;21.33;;
10904;SDS011;5505;51.450;9.254;2023-02-16T04:32:01;33.07;;;17.87;;
10904;SDS011;5505;51.450;9.254;2023-02-16T04:34:48;32.63;;;20.53;;
10904;SDS011;5505;51.450;9.254;2023-02-16T04:37:36;32.00;;;19.83;;
10904;SDS011;5505;51.450;9.254;2023-02-16T04:40:23;31.60;;;19.87;;
10904;SDS011;5505;51.450;9.254;2023-02-16T04:43:13;32.53;;;20.93;;
10904;SDS011;5505;51.450;9.254;2023-02-16T04:46:00;33.40;;;21.57;;
10904;SDS011;5505;51.450;9.254;2023-02-16T04:48:47;28.57;;;19.67;;
10904;SDS011;5505;51.450;9.254;2023-02-16T04:51:34;31.77;;;19.00;;
10904;SDS011;5505;51.450;9.254;2023-02-16T04:54:22;28.30;;;18.47;;
10904;SDS011;5505;51.450;9.254;2023-02-16T04:57:09;30.77;;;20.00;;
10904;SDS011;5505;51.450;9.254;2023-02-16T04:59:56;31.40;;;20.63;;
10904;SDS011;5505;51.450;9.254;2023-02-16T05:02:43;31.70;;;19.97;;
10904;SDS011;5505;51.450;9.254;2023-02-16T05:05:30;34.20;;;21.37;;
10904;SDS011;5505;51.450;9.254;2023-02-16T05:08:19;33.13;;;20.83;;
10904;SDS011;5505;51.450;9.254;2023-02-16T05:11:07;32.70;;;21.07;;
10904;SDS011;5505;51.450;9.254;2023-02-16T05:14:13;31.10;;;20.40;;
10904;SDS011;5505;51.450;9.254;2023-02-16T05:17:22;30.83;;;19.37;;
10904;SDS011;5505;51.450;9.254;2023-02-16T05:20:11;30.00;;;19.80;;
10904;SDS011;5505;51.450;9.254;2023-02-16T05:22:58;37.03;;;21.60;;
10904;SDS011;5505;51.450;9.254;2023-02-16T05:25:45;30.80;;;20.00;;
10904;SDS011;5505;51.450;9.254;2023-02-16T05:28:33;30.50;;;20.47;;
10904;SDS011;5505;51.450;9.254;2023-02-16T05:31:20;27.63;;;18.73;;
10904;SDS011;5505;51.450;9.254;2023-02-16T05:34:07;32.77;;;20.30;;
10904;SDS011;5505;51.450;9.254;2023-02-16T05:36:54;31.60;;;20.10;;
10904;SDS011;5505;51.450;9.254;2023-02-16T05:39:41;38.43;;;19.97;;
10904;SDS011;5505;51.450;9.254;2023-02-16T05:42:28;37.10;;;19.77;;
10904;SDS011;5505;51.450;9.254;2023-02-16T05:45:16;33.93;;;22.00;;
10904;SDS011;5505;51.450;9.254;2023-02-16T05:48:03;31.20;;;20.67;;
10904;SDS011;5505;51.450;9.254;2023-02-16T05:50:52;29.77;;;20.50;;
10904;SDS011;5505;51.450;9.254;2023-02-16T05:53:39;35.70;;;22.70;;
10904;SDS011;5505;51.450;9.254;2023-02-16T05:56:26;30.60;;;19.77;;
10904;SDS011;5505;51.450;9.254;2023-02-16T05:59:14;31.97;;;20.87;;
10904;SDS011;5505;51.450;9.254;2023-02-16T06:02:02;34.70;;;21.47;;
10904;SDS011;5505;51.450;9.254;2023-02-16T06:04:49;36.83;;;23.03;;
10904;SDS011;5505;51.450;9.254;2023-02-16T06:07:36;42.57;;;21.77;;
10904;SDS011;5505;51.450;9.254;2023-02-16T06:10:23;31.63;;;20.57;;
10904;SDS011;5505;51.450;9.254;2023-02-16T06:13:11;30.23;;;20.03;;
10904;SDS011;5505;51.450;9.254;2023-02-16T06:15:57;30.73;;;20.63;;
10904;SDS011;5505;51.450;9.254;2023-02-16T06:18:46;98.07;;;21.50;;
10904;SDS011;5505;51.450;9.254;2023-02-16T06:21:32;37.53;;;20.33;;
10904;SDS011;5505;51.450;9.254;2023-02-16T06:24:20;60.70;;;18.03;;
10904;SDS011;5505;51.450;9.254;2023-02-16T06:27:07;51.77;;;18.63;;
10904;SDS011;5505;51.450;9.254;2023-02-16T06:29:53;32.50;;;20.40;;
10904;SDS011;5505;51.450;9.254;2023-02-16T06:32:40;30.10;;;19.37;;
10904;SDS011;5505;51.450;9.254;2023-02-16T06:35:28;31.03;;;19.97;;
10904;SDS011;5505;51.450;9.254;2023-02-16T06:38:15;30.27;;;20.07;;
10904;SDS011;5505;51.450;9.254;2023-02-16T06:41:02;38.60;;;22.20;;
10904;SDS011;5505;51.450;9.254;2023-02-16T06:43:50;34.33;;;21.13;;
10904;SDS011;5505;51.450;9.254;2023-02-16T06:46:36;34.70;;;22.20;;
10904;SDS011;5505;51.450;9.254;2023-02-16T06:49:23;30.87;;;20.20;;
10904;SDS011;5505;51.450;9.254;2023-02-16T06:52:12;36.13;;;20.67;;
10904;SDS011;5505;51.450;9.254;2023-02-16T06:54:59;34.50;;;20.90;;
10904;SDS011;5505;51.450;9.254;2023-02-16T06:57:46;34.33;;;20.67;;
10904;SDS011;5505;51.450;9.254;2023-02-16T07:00:33;35.37;;;21.03;;
10904;SDS011;5505;51.450;9.254;2023-02-16T07:03:20;35.43;;;21.70;;
10904;SDS011;5505;51.450;9.254;2023-02-16T07:06:07;36.93;;;21.80;;
10904;SDS011;5505;51.450;9.254;2023-02-16T07:08:55;37.33;;;21.23;;
10904;SDS011;5505;51.450;9.254;2023-02-16T07:11:42;36.13;;;21.60;;
10904;SDS011;5505;51.450;9.254;2023-02-16T07:14:29;33.93;;;21.70;;
10904;SDS011;5505;51.450;9.254;2023-02-16T07:17:16;35.03;;;21.43;;
10904;SDS011;5505;51.450;9.254;2023-02-16T07:20:03;35.67;;;21.60;;
10904;SDS011;5505;51.450;9.254;2023-02-16T07:22:50;38.23;;;21.03;;
10904;SDS011;5505;51.450;9.254;2023-02-16T07:25:38;34.90;;;21.80;;
10904;SDS011;5505;51.450;9.254;2023-02-16T07:28:25;34.40;;;22.00;;
10904;SDS011;5505;51.450;9.254;2023-02-16T07:31:13;36.40;;;20.97;;
10904;SDS011;5505;51.450;9.254;2023-02-16T07:34:01;37.00;;;22.07;;
10904;SDS011;5505;51.450;9.254;2023-02-16T07:36:48;36.90;;;21.83;;
10904;SDS011;5505;51.450;9.254;2023-02-16T07:39:35;38.27;;;23.13;;
10904;SDS011;5505;51.450;9.254;2023-02-16T07:42:23;35.37;;;22.27;;
10904;SDS011;5505;51.450;9.254;2023-02-16T07:45:09;34.17;;;21.87;;
10904;SDS011;5505;51.450;9.254;2023-02-16T07:47:56;31.50;;;20.50;;
10904;SDS011;5505;51.450;9.254;2023-02-16T07:50:43;32.77;;;21.03;;
10904;SDS011;5505;51.450;9.254;2023-02-16T07:53:30;31.73;;;21.03;;
10904;SDS011;5505;51.450;9.254;2023-02-16T07:56:18;32.40;;;20.70;;
10904;SDS011;5505;51.450;9.254;2023-02-16T07:59:06;28.53;;;19.93;;
10904;SDS011;5505;51.450;9.254;2023-02-16T08:01:53;30.83;;;20.10;;
10904;SDS011;5505;51.450;9.254;2023-02-16T08:04:40;28.83;;;19.97;;
10904;SDS011;5505;51.450;9.254;2023-02-16T08:07:27;30.40;;;20.07;;
10904;SDS011;5505;51.450;9.254;2023-02-16T08:10:14;27.50;;;18.80;;
10904;SDS011;5505;51.450;9.254;2023-02-16T08:13:01;30.03;;;19.87;;
10904;SDS011;5505;51.450;9.254;2023-02-16T08:15:49;29.00;;;20.03;;
10904;SDS011;5505;51.450;9.254;2023-02-16T08:18:36;27.57;;;18.67;;
10904;SDS011;5505;51.450;9.254;2023-02-16T08:21:24;30.83;;;19.83;;
10904;SDS011;5505;51.450;9.254;2023-02-16T08:24:15;29.23;;;19.43;;
10904;SDS011;5505;51.450;9.254;2023-02-16T08:27:02;28.07;;;19.03;;
10904;SDS011;5505;51.450;9.254;2023-02-16T08:29:49;29.37;;;19.47;;
10904;SDS011;5505;51.450;9.254;2023-02-16T08:32:38;30.87;;;21.07;;
10904;SDS011;5505;51.450;9.254;2023-02-16T08:35:25;30.33;;;19.67;;
10904;SDS011;5505;51.450;9.254;2023-02-16T08:38:13;30.13;;;20.00;;
10904;SDS011;5505;51.450;9.254;2023-02-16T08:41:01;30.73;;;20.00;;
10904;SDS011;5505;51.450;9.254;2023-02-16T08:43:48;29.23;;;20.07;;
10904;SDS011;5505;51.450;9.254;2023-02-16T08:46:36;33.43;;;21.00;;
10904;SDS011;5505;51.450;9.254;2023-02-16T08:49:26;31.23;;;19.77;;
10904;SDS011;5505;51.450;9.254;2023-02-16T08:52:13;32.80;;;21.93;;
10904;SDS011;5505;51.450;9.254;2023-02-16T08:55:00;30.03;;;20.70;;
10904;SDS011;5505;51.450;9.254;2023-02-16T08:57:47;30.93;;;21.10;;
10904;SDS011;5505;51.450;9.254;2023-02-16T09:00:34;25.77;;;19.07;;
10904;SDS011;5505;51.450;9.254;2023-02-16T09:03:22;25.10;;;18.63;;
10904;SDS011;5505;51.450;9.254;2023-02-16T09:06:11;26.17;;;18.67;;
10904;SDS011;5505;51.450;9.254;2023-02-16T09:09:00;28.53;;;18.80;;
10904;SDS011;5505;51.450;9.254;2023-02-16T09:11:47;27.67;;;19.07;;
10904;SDS011;5505;51.450;9.254;2023-02-16T09:14:34;29.47;;;20.60;;
10904;SDS011;5505;51.450;9.254;2023-02-16T09:17:21;27.20;;;20.30;;
10904;SDS011;5505;51.450;9.254;2023-02-16T09:20:09;24.83;;;18.43;;
10904;SDS011;5505;51.450;9.254;2023-02-16T09:22:58;23.00;;;17.40;;
10904;SDS011;5505;51.450;9.254;2023-02-16T09:25:45;25.27;;;17.73;;
10904;SDS011;5505;51.450;9.254;2023-02-16T09:28:32;24.10;;;17.70;;
10904;SDS011;5505;51.450;9.254;2023-02-16T09:31:20;21.13;;;16.13;;
10904;SDS011;5505;51.450;9.254;2023-02-16T09:34:15;24.07;;;17.53;;
10904;SDS011;5505;51.450;9.254;2023-02-16T09:37:03;22.23;;;17.27;;
10904;SDS011;5505;51.450;9.254;2023-02-16T09:39:51;20.83;;;17.00;;
10904;SDS011;5505;51.450;9.254;2023-02-16T09:42:42;21.33;;;16.77;;
10904;SDS011;5505;51.450;9.254;2023-02-16T09:45:38;23.20;;;16.17;;
10904;SDS011;5505;51.450;9.254;2023-02-16T09:48:33;20.77;;;16.07;;
10904;SDS011;5505;51.450;9.254;2023-02-16T09:51:24;20.47;;;16.27;;
10904;SDS011;5505;51.450;9.254;2023-02-16T09:54:15;22.27;;;16.70;;
10904;SDS011;5505;51.450;9.254;2023-02-16T09:57:21;21.60;;;15.73;;
10904;SDS011;5505;51.450;9.254;2023-02-16T10:00:20;19.23;;;15.57;;
10904;SDS011;5505;51.450;9.254;2023-02-16T10:03:16;19.40;;;14.73;;
10904;SDS011;5505;51.450;9.254;2023-02-16T10:06:25;19.40;;;16.00;;
10904;SDS011;5505;51.450;9.254;2023-02-16T10:09:18;19.87;;;15.80;;
10904;SDS011;5505;51.450;9.254;2023-02-16T10:12:07;17.83;;;14.40;;
10904;SDS011;5505;51.450;9.254;2023-02-16T10:14:59;21.00;;;16.20;;
10904;SDS011;5505;51.450;9.254;2023-02-16T10:17:53;19.53;;;14.20;;
10904;SDS011;5505;51.450;9.254;2023-02-16T10:20:42;19.30;;;15.53;;
10904;SDS011;5505;51.450;9.254;2023-02-16T10:23:39;19.03;;;15.07;;
10904;SDS011;5505;51.450;9.254;2023-02-16T10:26:31;22.47;;;14.90;;
10904;SDS011;5505;51.450;9.254;2023-02-16T10:29:20;19.33;;;15.33;;
10904;SDS011;5505;51.450;9.254;2023-02-16T10:32:13;19.93;;;15.17;;
10904;SDS011;5505;51.450;9.254;2023-02-16T10:35:08;20.33;;;14.70;;
10904;SDS011;5505;51.450;9.254;2023-02-16T10:38:01;17.97;;;13.90;;
10904;SDS011;5505;51.450;9.254;2023-02-16T10:40:54;18.27;;;14.43;;
10904;SDS011;5505;51.450;9.254;2023-02-16T10:43:46;19.37;;;15.10;;
10904;SDS011;5505;51.450;9.254;2023-02-16T10:46:39;17.70;;;14.90;;
10904;SDS011;5505;51.450;9.254;2023-02-16T10:49:29;17.43;;;14.40;;
10904;SDS011;5505;51.450;9.254;2023-02-16T10:52:17;18.07;;;13.67;;
10904;SDS011;5505;51.450;9.254;2023-02-16T10:55:06;16.93;;;13.23;;
10904;SDS011;5505;51.450;9.254;2023-02-16T10:57:54;20.57;;;13.70;;
10904;SDS011;5505;51.450;9.254;2023-02-16T11:00:45;17.10;;;13.90;;
10904;SDS011;5505;51.450;9.254;2023-02-16T11:03:38;18.37;;;14.33;;
10904;SDS011;5505;51.450;9.254;2023-02-16T11:06:32;20.07;;;15.17;;
10904;SDS011;5505;51.450;9.254;2023-02-16T11:09:19;16.33;;;13.90;;
10904;SDS011;5505;51.450;9.254;2023-02-16T11:12:21;18.20;;;15.10;;
10904;SDS011;5505;51.450;9.254;2023-02-16T11:15:21;17.37;;;14.20;;
10904;SDS011;5505;51.450;9.254;2023-02-16T11:18:21;17.90;;;14.00;;
10904;SDS011;5505;51.450;9.254;2023-02-16T11:21:17;17.37;;;14.63;;
10904;SDS011;5505;51.450;9.254;2023-02-16T11:24:07;16.90;;;13.90;;
10904;SDS011;5505;51.450;9.254;2023-02-16T11:27:01;15.43;;;13.20;;
10904;SDS011;5505;51.450;9.254;2023-02-16T11:29:50;16.07;;;13.33;;
10904;SDS011;5505;51.450;9.254;2023-02-16T11:32:58;18.30;;;13.17;;
10904;SDS011;5505;51.450;9.254;2023-02-16T11:35:46;16.97;;;13.43;;
10904;SDS011;5505;51.450;9.254;2023-02-16T11:38:34;17.30;;;13.00;;
10904;SDS011;5505;51.450;9.254;2023-02-16T11:41:23;15.07;;;12.60;;
10904;SDS011;5505;51.450;9.254;2023-02-16T11:44:14;15.57;;;12.93;;
10904;SDS011;5505;51.450;9.254;2023-02-16T11:47:19;17.03;;;13.93;;
10904;SDS011;5505;51.450;9.254;2023-02-16T11:50:18;17.33;;;13.47;;
10904;SDS011;5505;51.450;9.254;2023-02-16T11:53:13;17.63;;;13.33;;
10904;SDS011;5505;51.450;9.254;2023-02-16T11:56:09;14.30;;;12.63;;
10904;SDS011;5505;51.450;9.254;2023-02-16T11:59:04;16.17;;;12.50;;
10904;SDS011;5505;51.450;9.254;2023-02-16T12:02:02;15.20;;;12.30;;
10904;SDS011;5505;51.450;9.254;2023-02-16T12:05:09;14.97;;;12.17;;
10904;SDS011;5505;51.450;9.254;2023-02-16T12:08:10;16.27;;;12.30;;
10904;SDS011;5505;51.450;9.254;2023-02-16T12:11:24;14.17;;;11.33;;
10904;SDS011;5505;51.450;9.254;2023-02-16T12:14:22;14.07;;;11.40;;
10904;SDS011;5505;51.450;9.254;2023-02-16T12:17:20;16.30;;;12.60;;
10904;SDS011;5505;51.450;9.254;2023-02-16T12:20:21;14.50;;;12.03;;
10904;SDS011;5505;51.450;9.254;2023-02-16T12:23:23;13.80;;;11.87;;
10904;SDS011;5505;51.450;9.254;2023-02-16T12:26:24;17.03;;;12.27;;
10904;SDS011;5505;51.450;9.254;2023-02-16T12:29:26;13.73;;;12.03;;
10904;SDS011;5505;51.450;9.254;2023-02-16T12:32:23;15.73;;;11.80;;
10904;SDS011;5505;51.450;9.254;2023-02-16T12:35:28;13.70;;;12.07;;
10904;SDS011;5505;51.450;9.254;2023-02-16T12:38:30;15.63;;;12.33;;
10904;SDS011;5505;51.450;9.254;2023-02-16T12:41:25;15.67;;;12.30;;
10904;SDS011;5505;51.450;9.254;2023-02-16T12:44:22;14.00;;;11.70;;
10904;SDS011;5505;51.450;9.254;2023-02-16T12:47:17;14.90;;;11.10;;
10904;SDS011;5505;51.450;9.254;2023-02-16T12:50:13;13.23;;;11.33;;
10904;SDS011;5505;51.450;9.254;2023-02-16T12:53:05;13.63;;;12.20;;
10904;SDS011;5505;51.450;9.254;2023-02-16T12:55:58;13.53;;;11.73;;
10904;SDS011;5505;51.450;9.254;2023-02-16T12:58:48;14.17;;;11.87;;
10904;SDS011;5505;51.450;9.254;2023-02-16T13:01:50;13.67;;;11.47;;
10904;SDS011;5505;51.450;9.254;2023-02-16T13:04:41;15.53;;;11.80;;
10904;SDS011;5505;51.450;9.254;2023-02-16T13:07:31;14.00;;;11.13;;
10904;SDS011;5505;51.450;9.254;2023-02-16T13:10:25;12.83;;;11.37;;
10904;SDS011;5505;51.450;9.254;2023-02-16T13:13:17;13.10;;;11.50;;
10904;SDS011;5505;51.450;9.254;2023-02-16T13:16:10;14.07;;;11.73;;
10904;SDS011;5505;51.450;9.254;2023-02-16T13:19:02;13.57;;;11.53;;
10904;SDS011;5505;51.450;9.254;2023-02-16T13:25:11;13.90;;;11.40;;
10904;SDS011;5505;51.450;9.254;2023-02-16T13:28:17;15.67;;;12.77;;
10904;SDS011;5505;51.450;9.254;2023-02-16T13:31:22;15.43;;;12.50;;
10904;SDS011;5505;51.450;9.254;2023-02-16T13:37:38;13.63;;;11.90;;
10904;SDS011;5505;51.450;9.254;2023-02-16T13:40:55;18.20;;;12.87;;
10904;SDS011;5505;51.450;9.254;2023-02-16T13:44:03;17.70;;;12.77;;
10904;SDS011;5505;51.450;9.254;2023-02-16T13:46:54;16.67;;;14.30;;
10904;SDS011;5505;51.450;9.254;2023-02-16T13:49:43;15.47;;;13.13;;
10904;SDS011;5505;51.450;9.254;2023-02-16T13:52:33;15.47;;;12.97;;
10904;SDS011;5505;51.450;9.254;2023-02-16T13:55:22;15.07;;;12.33;;
10904;SDS011;5505;51.450;9.254;2023-02-16T13:58:25;15.03;;;12.13;;
10904;SDS011;5505;51.450;9.254;2023-02-16T14:01:33;14.00;;;12.53;;
10904;SDS011;5505;51.450;9.254;2023-02-16T14:11:09;14.83;;;12.87;;
10904;SDS011;5505;51.450;9.254;2023-02-16T14:13:56;15.10;;;13.50;;
10904;SDS011;5505;51.450;9.254;2023-02-16T14:16:43;16.43;;;12.73;;
10904;SDS011;5505;51.450;9.254;2023-02-16T14:19:30;14.17;;;12.33;;
10904;SDS011;5505;51.450;9.254;2023-02-16T14:22:17;16.13;;;13.27;;
10904;SDS011;5505;51.450;9.254;2023-02-16T14:31:40;17.10;;;13.13;;
10904;SDS011;5505;51.450;9.254;2023-02-16T14:34:34;16.07;;;13.10;;
10904;SDS011;5505;51.450;9.254;2023-02-16T14:37:30;15.63;;;13.90;;
10904;SDS011;5505;51.450;9.254;2023-02-16T14:40:22;15.77;;;12.90;;
10904;SDS011;5505;51.450;9.254;2023-02-16T14:43:26;15.17;;;13.50;;
10904;SDS011;5505;51.450;9.254;2023-02-16T14:46:20;17.13;;;14.10;;
10904;SDS011;5505;51.450;9.254;2023-02-16T14:49:23;16.50;;;14.00;;
10904;SDS011;5505;51.450;9.254;2023-02-16T14:59:03;15.97;;;14.27;;
10904;SDS011;5505;51.450;9.254;2023-02-16T15:01:54;16.10;;;13.80;;
10904;SDS011;5505;51.450;9.254;2023-02-16T15:04:41;15.70;;;14.00;;
10904;SDS011;5505;51.450;9.254;2023-02-16T15:07:30;16.80;;;13.73;;
10904;SDS011;5505;51.450;9.254;2023-02-16T15:10:25;17.70;;;14.27;;
10904;SDS011;5505;51.450;9.254;2023-02-16T15:13:17;17.23;;;14.97;;
10904;SDS011;5505;51.450;9.254;2023-02-16T15:16:06;18.23;;;14.70;;
10904;SDS011;5505;51.450;9.254;2023-02-16T15:18:57;16.47;;;14.67;;
10904;SDS011;5505;51.450;9.254;2023-02-16T15:22:05;17.27;;;15.00;;
10904;SDS011;5505;51.450;9.254;2023-02-16T15:24:54;18.07;;;15.53;;
10904;SDS011;5505;51.450;9.254;2023-02-16T15:27:50;17.67;;;14.67;;
10904;SDS011;5505;51.450;9.254;2023-02-16T15:30:39;18.87;;;14.97;;
10904;SDS011;5505;51.450;9.254;2023-02-16T15:33:34;17.87;;;14.70;;
10904;SDS011;5505;51.450;9.254;2023-02-16T15:36:22;17.30;;;14.97;;
10904;SDS011;5505;51.450;9.254;2023-02-16T15:39:23;17.10;;;15.20;;
10904;SDS011;5505;51.450;9.254;2023-02-16T15:42:15;18.07;;;15.20;;
10904;SDS011;5505;51.450;9.254;2023-02-16T15:45:16;17.90;;;15.07;;
10904;SDS011;5505;51.450;9.254;2023-02-16T15:48:20;16.80;;;15.00;;
10904;SDS011;5505;51.450;9.254;2023-02-16T15:51:13;21.17;;;16.00;;
10904;SDS011;5505;51.450;9.254;2023-02-16T15:54:05;18.60;;;16.00;;
10904;SDS011;5505;51.450;9.254;2023-02-16T15:57:03;18.60;;;15.33;;
10904;SDS011;5505;51.450;9.254;2023-02-16T15:59:57;19.13;;;15.83;;
10904;SDS011;5505;51.450;9.254;2023-02-16T16:02:47;20.20;;;15.70;;
10904;SDS011;5505;51.450;9.254;2023-02-16T16:05:35;20.20;;;16.20;;
10904;SDS011;5505;51.450;9.254;2023-02-16T16:08:26;17.90;;;15.43;;
10904;SDS011;5505;51.450;9.254;2023-02-16T16:11:14;19.90;;;16.17;;
10904;SDS011;5505;51.450;9.254;2023-02-16T16:14:01;19.97;;;16.43;;
10904;SDS011;5505;51.450;9.254;2023-02-16T16:16:50;18.40;;;15.73;;
10904;SDS011;5505;51.450;9.254;2023-02-16T16:19:38;20.90;;;17.10;;
10904;SDS011;5505;51.450;9.254;2023-02-16T16:22:30;21.87;;;16.57;;
10904;SDS011;5505;51.450;9.254;2023-02-16T16:25:37;19.47;;;16.00;;
10904;SDS011;5505;51.450;9.254;2023-02-16T16:28:31;20.10;;;15.83;;
10904;SDS011;5505;51.450;9.254;2023-02-16T16:31:38;21.13;;;17.23;;
10904;SDS011;5505;51.450;9.254;2023-02-16T16:34:30;21.50;;;17.07;;
10904;SDS011;5505;51.450;9.254;2023-02-16T16:37:24;19.67;;;16.53;;
10904;SDS011;5505;51.450;9.254;2023-02-16T16:40:19;20.47;;;16.87;;
10904;SDS011;5505;51.450;9.254;2023-02-16T16:43:13;23.40;;;16.77;;
10904;SDS011;5505;51.450;9.254;2023-02-16T16:46:09;22.43;;;16.07;;
10904;SDS011;5505;51.450;9.254;2023-02-16T16:48:58;20.90;;;17.40;;
10904;SDS011;5505;51.450;9.254;2023-02-16T16:51:50;20.23;;;16.77;;
10904;SDS011;5505;51.450;9.254;2023-02-16T16:54:38;22.00;;;17.87;;
10904;SDS011;5505;51.450;9.254;2023-02-16T16:57:24;21.50;;;16.90;;
10904;SDS011;5505;51.450;9.254;2023-02-16T17:03:02;21.27;;;17.37;;
10904;SDS011;5505;51.450;9.254;2023-02-16T17:05:50;30.00;;;20.50;;
10904;SDS011;5505;51.450;9.254;2023-02-16T17:08:37;23.27;;;17.83;;
10904;SDS011;5505;51.450;9.254;2023-02-16T17:11:26;20.50;;;16.83;;
10904;SDS011;5505;51.450;9.254;2023-02-16T17:14:16;21.63;;;17.70;;
10904;SDS011;5505;51.450;9.254;2023-02-16T17:17:05;20.63;;;17.00;;
10904;SDS011;5505;51.450;9.254;2023-02-16T17:19:53;21.40;;;16.87;;
10904;SDS011;5505;51.450;9.254;2023-02-16T17:22:39;19.37;;;16.03;;
10904;SDS011;5505;51.450;9.254;2023-02-16T17:25:26;20.93;;;16.30;;
10904;SDS011;5505;51.450;9.254;2023-02-16T17:28:13;27.27;;;19.60;;
10904;SDS011;5505;51.450;9.254;2023-02-16T17:31:02;21.97;;;17.43;;
10904;SDS011;5505;51.450;9.254;2023-02-16T17:33:50;21.03;;;17.20;;